Time,TemperatureF,DewpointF,PressureIn,WindDirection,WindDirectionDegrees,WindSpeedMPH,WindSpeedGustMPH,Humidity,HourlyPrecipIn,Conditions,Clouds,dailyrainin,SoftwareType,DateUTC
2014-07-29 00:01:00,63.0,62.4,29.38,NW,307,0.0,0.0,98,0.00,RA,FEW,0.00,WeatherDisplay:10.37,2014-07-29 04:01:00,
2014-07-29 00:02:00,63.0,62.4,29.38,NW,307,0.0,0.0,98,0.00,RA,FEW,0.00,WeatherDisplay:10.37,2014-07-29 04:02:00,
2014-07-29 00:07:00,63.0,62.4,29.38,NW,307,0.0,0.0,98,0.00,RA,FEW,0.00,WeatherDisplay:10.37,2014-07-29 04:07:00,
2014-07-29 00:12:00,63.1,62.5,29.38,NW,307,0.0,0.0,98,0.00,CLR,FEW,0.00,WeatherDisplay:10.37,2014-07-29 04:12:00,
2014-07-29 00:17:00,63.2,62.6,29.38,NW,307,0.0,0.0,98,0.00,CLR,FEW,0.00,WeatherDisplay:10.37,2014-07-29 04:17:00,
2014-07-29 00:22:00,63.2,62.6,29.38,NW,307,0.0,0.0,98,0.00,CLR,FEW,0.00,WeatherDisplay:10.37,2014-07-29 04:22:00,
2014-07-29 00:27:00,63.2,62.6,29.38,NW,307,0.0,1.2,98,0.00,CLR,FEW,0.00,WeatherDisplay:10.37,2014-07-29 04:27:00,
2014-07-29 00:32:00,63.2,62.6,29.37,NW,307,0.0,0.0,98,0.00,CLR,FEW,0.00,WeatherDisplay:10.37,2014-07-29 04:32:00,
2014-07-29 00:37:00,63.3,62.7,29.37,NW,307,0.0,0.0,98,0.00,CLR,FEW,0.00,WeatherDisplay:10.37,2014-07-29 04:37:00,
2014-07-29 00:42:00,63.5,62.9,29.37,NW,307,0.0,0.0,98,0.00,CLR,FEW,0.00,WeatherDisplay:10.37,2014-07-29 04:42:00,
2014-07-29 00:47:00,63.6,63.3,29.38,NW,307,0.0,0.0,99,0.00,CLR,FEW,0.00,WeatherDisplay:10.37,2014-07-29 04:47:00,
2014-07-29 00:52:00,63.8,63.2,29.38,NW,307,0.0,1.2,98,0.00,CLR,FEW,0.00,WeatherDisplay:10.37,2014-07-29 04:52:00,
2014-07-29 00:57:00,63.9,63.3,29.38,NW,307,0.6,2.3,98,0.00,CLR,FEW,0.00,WeatherDisplay:10.37,2014-07-29 04:57:00,
2014-07-29 01:02:00,64.2,63.9,29.38,NW,307,2.2,3.5,99,0.00,CLR,FEW,0.00,WeatherDisplay:10.37,2014-07-29 05:02:00,
2014-07-29 01:07:00,64.3,64.0,29.38,NW,307,0.0,0.0,99,0.00,CLR,FEW,0.00,WeatherDisplay:10.37,2014-07-29 05:07:00,
2014-07-29 01:12:00,64.3,64.0,29.38,NW,307,0.0,0.0,99,0.00,CLR,FEW,0.00,WeatherDisplay:10.37,2014-07-29 05:12:00,
2014-07-29 01:17:00,64.2,63.9,29.38,NW,307,0.0,1.2,99,0.00,CLR,FEW,0.00,WeatherDisplay:10.37,2014-07-29 05:17:00,
2014-07-29 01:22:00,64.2,63.9,29.38,NW,307,0.0,0.0,99,0.00,CLR,FEW,0.00,WeatherDisplay:10.37,2014-07-29 05:22:00,
2014-07-29 01:27:00,64.1,63.8,29.39,NW,307,0.0,0.0,99,0.00,CLR,FEW,0.00,WeatherDisplay:10.37,2014-07-29 05:27:00,
2014-07-29 01:32:00,64.0,63.4,29.39,NW,307,0.5,2.3,98,0.00,CLR,FEW,0.00,WeatherDisplay:10.37,2014-07-29 05:32:00,
2014-07-29 01:37:00,64.0,63.4,29.39,NW,307,0.3,1.2,98,0.00,CLR,FEW,0.00,WeatherDisplay:10.37,2014-07-29 05:37:00,
2014-07-29 01:42:00,63.9,63.3,29.39,NW,307,0.1,1.2,98,0.00,CLR,FEW,0.00,WeatherDisplay:10.37,2014-07-29 05:42:00,
2014-07-29 01:47:00,63.8,63.2,29.39,NW,307,0.0,1.2,98,0.00,CLR,FEW,0.00,WeatherDisplay:10.37,2014-07-29 05:47:00,
2014-07-29 01:52:00,63.7,63.4,29.39,NW,307,0.0,0.0,99,0.00,CLR,FEW,0.00,WeatherDisplay:10.37,2014-07-29 05:52:00,
2014-07-29 01:57:00,63.7,63.4,29.41,NW,307,0.0,1.2,99,0.00,CLR,FEW,0.00,WeatherDisplay:10.37,2014-07-29 05:57:00,
2014-07-29 02:02:00,63.7,63.4,29.41,NW,307,0.0,0.0,99,0.00,CLR,FEW,0.00,WeatherDisplay:10.37,2014-07-29 06:02:00,
2014-07-29 02:07:00,63.7,63.4,29.41,NW,307,0.0,0.0,99,0.00,CLR,FEW,0.00,WeatherDisplay:10.37,2014-07-29 06:07:00,
2014-07-29 02:12:00,63.6,63.3,29.42,NW,307,0.0,0.0,99,0.00,CLR,FEW,0.00,WeatherDisplay:10.37,2014-07-29 06:12:00,
2014-07-29 02:17:00,63.5,63.2,29.42,NW,307,0.1,2.3,99,0.00,CLR,FEW,0.00,WeatherDisplay:10.37,2014-07-29 06:17:00,
2014-07-29 02:22:00,63.4,62.8,29.42,NW,307,0.2,1.2,98,0.00,CLR,FEW,0.00,WeatherDisplay:10.37,2014-07-29 06:22:00,
2014-07-29 02:27:00,63.2,62.6,29.42,NW,307,0.0,0.0,98,0.00,CLR,FEW,0.00,WeatherDisplay:10.37,2014-07-29 06:27:00,
2014-07-29 02:32:00,63.0,62.4,29.42,NW,307,0.3,1.2,98,0.00,CLR,FEW,0.00,WeatherDisplay:10.37,2014-07-29 06:32:00,
2014-07-29 02:37:00,62.8,62.2,29.42,NW,307,0.4,1.2,98,0.00,CLR,FEW,0.00,WeatherDisplay:10.37,2014-07-29 06:37:00,
2014-07-29 02:42:00,62.6,62.0,29.42,NW,307,0.0,0.0,98,0.00,CLR,FEW,0.00,WeatherDisplay:10.37,2014-07-29 06:42:00,
2014-07-29 02:47:00,62.3,61.7,29.42,NW,307,0.0,1.2,98,0.00,CLR,FEW,0.00,WeatherDisplay:10.37,2014-07-29 06:47:00,
2014-07-29 02:52:00,62.2,61.6,29.42,NW,307,0.1,1.2,98,0.00,CLR,FEW,0.00,WeatherDisplay:10.37,2014-07-29 06:52:00,
2014-07-29 02:57:00,62.1,61.5,29.44,NW,307,0.0,0.0,98,0.00,CLR,FEW,0.00,WeatherDisplay:10.37,2014-07-29 06:57:00,
2014-07-29 03:02:00,62.0,61.4,29.44,NW,307,0.0,0.0,98,0.00,CLR,FEW,0.00,WeatherDisplay:10.37,2014-07-29 07:02:00,
2014-07-29 03:07:00,61.9,61.3,29.44,NW,307,0.0,0.0,98,0.00,CLR,FEW,0.00,WeatherDisplay:10.37,2014-07-29 07:07:00,
2014-07-29 03:12:00,61.8,61.2,29.44,NW,307,0.0,0.0,98,0.00,CLR,FEW,0.00,WeatherDisplay:10.37,2014-07-29 07:12:00,
2014-07-29 03:17:00,61.8,61.2,29.44,NW,307,0.0,0.0,98,0.00,CLR,FEW,0.00,WeatherDisplay:10.37,2014-07-29 07:17:00,
2014-07-29 03:22:00,61.7,61.1,29.44,NW,307,0.0,0.0,98,0.00,CLR,FEW,0.00,WeatherDisplay:10.37,2014-07-29 07:22:00,
2014-07-29 03:27:00,61.6,61.0,29.45,NW,307,0.0,0.0,98,0.00,CLR,FEW,0.00,WeatherDisplay:10.37,2014-07-29 07:27:00,
2014-07-29 03:32:00,61.5,60.9,29.45,NW,307,0.0,0.0,98,0.00,CLR,FEW,0.00,WeatherDisplay:10.37,2014-07-29 07:32:00,
2014-07-29 03:37:00,61.4,60.8,29.45,NW,307,0.0,0.0,98,0.00,CLR,FEW,0.00,WeatherDisplay:10.37,2014-07-29 07:37:00,
2014-07-29 03:42:00,61.3,60.4,29.45,NW,307,0.0,0.0,97,0.00,CLR,FEW,0.00,WeatherDisplay:10.37,2014-07-29 07:42:00,
2014-07-29 03:47:00,61.2,60.3,29.45,NW,307,0.0,0.0,97,0.00,CLR,FEW,0.00,WeatherDisplay:10.37,2014-07-29 07:47:00,
2014-07-29 03:52:00,61.1,60.2,29.45,NW,307,0.0,0.0,97,0.00,CLR,FEW,0.00,WeatherDisplay:10.37,2014-07-29 07:52:00,
2014-07-29 03:57:00,61.0,60.1,29.46,NW,307,0.0,0.0,97,0.00,CLR,FEW,0.00,WeatherDisplay:10.37,2014-07-29 07:57:00,
2014-07-29 04:02:00,60.9,60.0,29.46,NW,307,0.0,0.0,97,0.00,CLR,FEW,0.00,WeatherDisplay:10.37,2014-07-29 08:02:00,
2014-07-29 04:07:00,60.9,60.0,29.46,NW,307,0.0,0.0,97,0.00,CLR,FEW,0.00,WeatherDisplay:10.37,2014-07-29 08:07:00,
2014-07-29 04:12:00,60.8,59.9,29.47,NW,307,0.0,0.0,97,0.00,CLR,FEW,0.00,WeatherDisplay:10.37,2014-07-29 08:12:00,
2014-07-29 04:17:00,60.8,59.9,29.47,NW,307,0.0,0.0,97,0.00,CLR,FEW,0.00,WeatherDisplay:10.37,2014-07-29 08:17:00,
2014-07-29 04:23:00,60.8,59.9,29.47,NW,307,0.0,1.2,97,0.00,CLR,FEW,0.00,WeatherDisplay:10.37,2014-07-29 08:23:00,
2014-07-29 04:28:00,60.7,60.1,29.47,NW,307,0.0,1.2,98,0.00,CLR,FEW,0.00,WeatherDisplay:10.37,2014-07-29 08:28:00,
2014-07-29 04:33:00,60.7,60.1,29.47,NW,307,0.3,2.0,98,0.00,CLR,FEW,0.00,WeatherDisplay:10.37,2014-07-29 08:33:00,
2014-07-29 04:38:00,60.9,60.3,29.47,NW,307,0.0,0.0,98,0.00,CLR,FEW,0.00,WeatherDisplay:10.37,2014-07-29 08:38:00,
2014-07-29 04:43:00,60.9,60.3,29.48,NW,307,0.0,0.0,98,0.00,CLR,FEW,0.00,WeatherDisplay:10.37,2014-07-29 08:43:00,
2014-07-29 04:48:00,60.9,60.3,29.48,NW,307,0.0,0.0,98,0.00,CLR,FEW,0.00,WeatherDisplay:10.37,2014-07-29 08:48:00,
2014-07-29 04:53:00,60.9,60.3,29.48,NW,307,0.0,0.0,98,0.00,CLR,FEW,0.00,WeatherDisplay:10.37,2014-07-29 08:53:00,
2014-07-29 04:58:00,60.8,60.2,29.48,NW,307,0.0,0.0,98,0.00,CLR,FEW,0.00,WeatherDisplay:10.37,2014-07-29 08:58:00,
2014-07-29 05:03:00,60.8,60.2,29.48,NW,307,0.0,0.0,98,0.00,CLR,FEW,0.00,WeatherDisplay:10.37,2014-07-29 09:03:00,
2014-07-29 05:08:00,60.7,60.1,29.48,NW,307,0.0,0.0,98,0.00,CLR,FEW,0.00,WeatherDisplay:10.37,2014-07-29 09:08:00,
2014-07-29 05:13:00,60.6,60.0,29.49,NW,307,0.2,1.2,98,0.00,CLR,FEW,0.00,WeatherDisplay:10.37,2014-07-29 09:13:00,
2014-07-29 05:18:00,60.5,59.9,29.49,NW,307,0.0,1.2,98,0.00,CLR,FEW,0.00,WeatherDisplay:10.37,2014-07-29 09:18:00,
2014-07-29 05:23:00,60.4,59.8,29.49,NW,307,0.0,0.0,98,0.00,CLR,FEW,0.00,WeatherDisplay:10.37,2014-07-29 09:23:00,
2014-07-29 05:28:00,60.3,59.7,29.50,NW,307,0.0,0.0,98,0.00,CLR,FEW,0.00,WeatherDisplay:10.37,2014-07-29 09:28:00,
2014-07-29 05:33:00,60.2,59.6,29.50,NW,307,0.0,0.0,98,0.00,CLR,FEW,0.00,WeatherDisplay:10.37,2014-07-29 09:33:00,
2014-07-29 05:38:00,60.2,59.6,29.50,NW,307,0.0,0.0,98,0.00,CLR,FEW,0.00,WeatherDisplay:10.37,2014-07-29 09:38:00,
2014-07-29 05:43:00,60.1,59.5,29.50,NW,307,0.0,0.0,98,0.00,CLR,FEW,0.00,WeatherDisplay:10.37,2014-07-29 09:43:00,
2014-07-29 05:48:00,60.0,59.4,29.50,NW,307,0.0,0.0,98,0.00,CLR,FEW,0.00,WeatherDisplay:10.37,2014-07-29 09:48:00,
2014-07-29 05:53:00,60.0,59.4,29.50,NW,307,0.0,0.0,98,0.00,CLR,FEW,0.00,WeatherDisplay:10.37,2014-07-29 09:53:00,
2014-07-29 05:58:00,60.0,59.4,29.51,NW,307,0.0,0.0,98,0.00,CLR,FEW,0.00,WeatherDisplay:10.37,2014-07-29 09:58:00,
2014-07-29 06:03:00,60.0,59.4,29.51,NW,307,0.0,0.0,98,0.00,CLR,FEW,0.00,WeatherDisplay:10.37,2014-07-29 10:03:00,
2014-07-29 06:08:00,60.0,59.4,29.51,NW,307,0.0,0.0,98,0.00,CLR,FEW,0.00,WeatherDisplay:10.37,2014-07-29 10:08:00,
2014-07-29 06:13:00,60.0,59.4,29.52,NW,307,0.0,0.0,98,0.00,CLR,FEW,0.00,WeatherDisplay:10.37,2014-07-29 10:13:00,
2014-07-29 06:18:00,60.2,59.6,29.52,NW,307,0.0,0.0,98,0.00,CLR,FEW,0.00,WeatherDisplay:10.37,2014-07-29 10:18:00,
2014-07-29 06:23:00,60.5,59.9,29.52,NW,307,0.0,0.0,98,0.00,CLR,FEW,0.00,WeatherDisplay:10.37,2014-07-29 10:23:00,
2014-07-29 06:28:00,60.9,60.3,29.53,NW,307,0.0,1.2,98,0.00,CLR,FEW,0.00,WeatherDisplay:10.37,2014-07-29 10:28:00,
2014-07-29 06:33:00,61.4,60.8,29.53,NW,307,0.2,1.2,98,0.00,CLR,FEW,0.00,WeatherDisplay:10.37,2014-07-29 10:33:00,
2014-07-29 06:38:00,61.7,61.4,29.53,NW,307,0.0,0.0,99,0.00,CLR,FEW,0.00,WeatherDisplay:10.37,2014-07-29 10:38:00,
2014-07-29 06:43:00,62.1,61.8,29.54,NW,307,0.2,1.2,99,0.00,CLR,FEW,0.00,WeatherDisplay:10.37,2014-07-29 10:43:00,
2014-07-29 06:48:00,62.5,62.2,29.54,NW,307,0.0,0.0,99,0.00,CLR,FEW,0.00,WeatherDisplay:10.37,2014-07-29 10:48:00,
2014-07-29 06:53:00,62.8,62.5,29.54,NW,307,0.0,1.2,99,0.00,CLR,FEW,0.00,WeatherDisplay:10.37,2014-07-29 10:53:00,
2014-07-29 06:58:00,63.1,62.8,29.55,NW,307,0.0,0.0,99,0.00,CLR,FEW,0.00,WeatherDisplay:10.37,2014-07-29 10:58:00,
2014-07-29 07:03:00,63.3,62.7,29.55,NW,307,0.0,0.0,98,0.00,CLR,FEW,0.00,WeatherDisplay:10.37,2014-07-29 11:03:00,
2014-07-29 07:08:00,63.4,62.8,29.55,NW,307,0.0,0.0,98,0.00,CLR,FEW,0.00,WeatherDisplay:10.37,2014-07-29 11:08:00,
2014-07-29 07:13:00,63.5,62.6,29.56,NW,307,0.0,1.2,97,0.00,CLR,FEW,0.00,WeatherDisplay:10.37,2014-07-29 11:13:00,
2014-07-29 07:18:00,63.6,62.4,29.56,NW,307,0.0,0.0,96,0.00,CLR,FEW,0.00,WeatherDisplay:10.37,2014-07-29 11:18:00,
2014-07-29 07:23:00,63.7,62.2,29.56,NW,307,0.0,1.2,95,0.00,CLR,FEW,0.00,WeatherDisplay:10.37,2014-07-29 11:23:00,
2014-07-29 07:28:00,64.0,62.2,29.57,NW,307,0.0,0.0,94,0.00,CLR,FEW,0.00,WeatherDisplay:10.37,2014-07-29 11:28:00,
2014-07-29 07:33:00,64.1,61.7,29.57,NW,307,0.0,0.0,92,0.00,CLR,FEW,0.00,WeatherDisplay:10.37,2014-07-29 11:33:00,
2014-07-29 07:38:00,64.1,61.4,29.57,NW,307,0.0,0.0,91,0.00,CLR,FEW,0.00,WeatherDisplay:10.37,2014-07-29 11:38:00,
2014-07-29 07:43:00,64.2,61.5,29.58,NW,307,0.1,1.2,91,0.00,CLR,FEW,0.00,WeatherDisplay:10.37,2014-07-29 11:43:00,
2014-07-29 07:48:00,64.3,61.9,29.58,NW,307,0.0,0.0,92,0.00,CLR,FEW,0.00,WeatherDisplay:10.37,2014-07-29 11:48:00,
2014-07-29 07:53:00,64.6,61.9,29.58,NW,307,0.0,0.0,91,0.00,CLR,FEW,0.00,WeatherDisplay:10.37,2014-07-29 11:53:00,
2014-07-29 07:58:00,64.9,62.2,29.58,NW,307,0.3,1.2,91,0.00,CLR,FEW,0.00,WeatherDisplay:10.37,2014-07-29 11:58:00,
2014-07-29 08:03:00,65.0,62.3,29.58,NW,307,0.1,1.2,91,0.00,CLR,FEW,0.00,WeatherDisplay:10.37,2014-07-29 12:03:00,
2014-07-29 08:08:00,65.1,62.1,29.58,NW,307,0.2,1.2,90,0.00,CLR,FEW,0.00,WeatherDisplay:10.37,2014-07-29 12:08:00,
2014-07-29 08:13:00,65.3,62.0,29.58,NW,307,0.3,1.2,89,0.00,CLR,FEW,0.00,WeatherDisplay:10.37,2014-07-29 12:13:00,
2014-07-29 08:18:00,65.6,62.6,29.58,NW,307,0.0,0.0,90,0.00,CLR,FEW,0.00,WeatherDisplay:10.37,2014-07-29 12:18:00,
2014-07-29 08:23:00,65.6,62.3,29.58,NW,307,0.1,1.2,89,0.00,CLR,FEW,0.00,WeatherDisplay:10.37,2014-07-29 12:23:00,
2014-07-29 08:28:00,65.8,62.5,29.59,NW,307,0.1,1.2,89,0.00,CLR,FEW,0.00,WeatherDisplay:10.37,2014-07-29 12:28:00,
2014-07-29 08:33:00,66.1,62.8,29.59,NW,307,0.0,0.0,89,0.00,CLR,FEW,0.00,WeatherDisplay:10.37,2014-07-29 12:33:00,
2014-07-29 08:38:00,66.1,62.1,29.59,NW,307,0.1,1.2,87,0.00,CLR,FEW,0.00,WeatherDisplay:10.37,2014-07-29 12:38:00,
2014-07-29 08:43:00,66.3,61.7,29.59,NW,307,0.0,0.0,85,0.00,CLR,FEW,0.00,WeatherDisplay:10.37,2014-07-29 12:43:00,
2014-07-29 08:48:00,66.6,62.3,29.59,NW,307,0.1,1.2,86,0.00,CLR,FEW,0.00,WeatherDisplay:10.37,2014-07-29 12:48:00,
2014-07-29 08:53:00,66.7,63.0,29.59,NW,307,0.0,0.0,88,0.00,CLR,FEW,0.00,WeatherDisplay:10.37,2014-07-29 12:53:00,
2014-07-29 08:58:00,67.0,62.7,29.60,NW,307,0.0,0.0,86,0.00,CLR,FEW,0.00,WeatherDisplay:10.37,2014-07-29 12:58:00,
2014-07-29 09:03:00,67.2,61.2,29.60,NW,307,0.0,0.0,81,0.00,CLR,FEW,0.00,WeatherDisplay:10.37,2014-07-29 13:03:00,
2014-07-29 09:08:00,67.5,61.5,29.60,NW,307,0.0,0.0,81,0.00,CLR,FEW,0.00,WeatherDisplay:10.37,2014-07-29 13:08:00,
2014-07-29 09:13:00,67.8,61.0,29.61,NW,307,0.0,0.0,79,0.00,CLR,FEW,0.00,WeatherDisplay:10.37,2014-07-29 13:13:00,
2014-07-29 09:18:00,68.0,62.6,29.61,NW,307,0.0,0.0,83,0.00,CLR,FEW,0.00,WeatherDisplay:10.37,2014-07-29 13:18:00,
2014-07-29 09:23:00,68.1,61.0,29.61,NW,307,0.2,1.2,78,0.00,CLR,FEW,0.00,WeatherDisplay:10.37,2014-07-29 13:23:00,
2014-07-29 09:28:00,68.4,60.5,29.62,NW,307,0.1,1.2,76,0.00,CLR,FEW,0.00,WeatherDisplay:10.37,2014-07-29 13:28:00,
2014-07-29 09:33:00,68.5,62.1,29.62,NW,307,0.1,1.2,80,0.00,CLR,FEW,0.00,WeatherDisplay:10.37,2014-07-29 13:33:00,
2014-07-29 09:38:00,68.3,62.6,29.62,NW,307,0.0,1.2,82,0.00,CLR,FEW,0.00,WeatherDisplay:10.37,2014-07-29 13:38:00,
2014-07-29 09:43:00,68.3,61.2,29.62,NW,307,0.2,1.0,78,0.00,CLR,FEW,0.00,WeatherDisplay:10.37,2014-07-29 13:43:00,
2014-07-29 09:48:00,68.7,62.6,29.62,NW,307,0.0,0.0,81,0.00,CLR,FEW,0.00,WeatherDisplay:10.37,2014-07-29 13:48:00,
2014-07-29 09:53:00,68.8,62.0,29.62,NW,307,0.0,0.0,79,0.00,CLR,FEW,0.00,WeatherDisplay:10.37,2014-07-29 13:53:00,
2014-07-29 09:58:00,68.7,61.6,29.62,NW,307,0.0,0.0,78,0.00,CLR,FEW,0.00,WeatherDisplay:10.37,2014-07-29 13:58:00,
2014-07-29 10:03:00,68.4,62.7,29.62,NW,307,0.0,0.0,82,0.00,CLR,FEW,0.00,WeatherDisplay:10.37,2014-07-29 14:03:00,
2014-07-29 10:08:00,67.9,63.2,29.62,NW,307,0.0,0.0,85,0.00,CLR,FEW,0.00,WeatherDisplay:10.37,2014-07-29 14:08:00,
2014-07-29 10:13:00,67.8,61.8,29.64,NW,307,0.0,0.0,81,0.00,CLR,FEW,0.00,WeatherDisplay:10.37,2014-07-29 14:13:00,
2014-07-29 10:18:00,68.3,60.8,29.64,NW,307,0.0,0.0,77,0.00,CLR,FEW,0.00,WeatherDisplay:10.37,2014-07-29 14:18:00,
2014-07-29 10:23:00,68.8,60.6,29.64,NW,307,1.9,3.5,75,0.01,RA,FEW,0.01,WeatherDisplay:10.37,2014-07-29 14:23:00,
2014-07-29 10:28:00,69.2,59.8,29.64,NW,307,0.5,2.3,72,0.01,RA,FEW,0.01,WeatherDisplay:10.37,2014-07-29 14:28:00,
2014-07-29 10:33:00,69.6,60.9,29.64,NW,307,1.6,2.3,74,0.01,CLR,FEW,0.01,WeatherDisplay:10.37,2014-07-29 14:33:00,
2014-07-29 10:38:00,69.9,60.1,29.64,NW,307,0.3,2.3,71,0.01,CLR,FEW,0.01,WeatherDisplay:10.37,2014-07-29 14:38:00,
2014-07-29 10:43:00,70.1,60.3,29.64,NW,304,2.4,4.6,71,0.01,CLR,FEW,0.01,WeatherDisplay:10.37,2014-07-29 14:43:00,
2014-07-29 10:48:00,70.2,60.7,29.64,NW,304,1.9,6.9,72,0.01,CLR,FEW,0.01,WeatherDisplay:10.37,2014-07-29 14:48:00,
2014-07-29 10:53:00,70.2,60.4,29.64,NW,307,0.6,3.5,71,0.01,CLR,FEW,0.01,WeatherDisplay:10.37,2014-07-29 14:53:00,
2014-07-29 10:58:00,70.4,62.5,29.64,WNW,303,0.8,3.5,76,0.01,CLR,FEW,0.01,WeatherDisplay:10.37,2014-07-29 14:58:00,
2014-07-29 11:03:00,70.6,63.4,29.64,WNW,303,0.2,2.3,78,0.01,CLR,FEW,0.01,WeatherDisplay:10.37,2014-07-29 15:03:00,
2014-07-29 11:08:00,70.6,60.7,29.64,WNW,303,0.2,3.5,71,0.01,CLR,FEW,0.01,WeatherDisplay:10.37,2014-07-29 15:08:00,
2014-07-29 11:14:00,70.4,61.3,29.65,WNW,303,0.0,1.2,73,0.01,CLR,FEW,0.01,WeatherDisplay:10.37,2014-07-29 15:14:00,
2014-07-29 11:19:00,70.0,60.6,29.65,NW,304,0.6,2.3,72,0.01,CLR,FEW,0.01,WeatherDisplay:10.37,2014-07-29 15:19:00,
2014-07-29 11:24:00,69.9,60.5,29.65,NW,304,0.1,3.5,72,0.00,CLR,FEW,0.01,WeatherDisplay:10.37,2014-07-29 15:24:00,
2014-07-29 11:29:00,70.1,61.0,29.65,NW,307,0.3,2.3,73,0.00,CLR,FEW,0.01,WeatherDisplay:10.37,2014-07-29 15:29:00,
2014-07-29 11:34:00,70.3,60.4,29.65,NW,307,0.2,2.3,71,0.00,CLR,FEW,0.01,WeatherDisplay:10.37,2014-07-29 15:34:00,
2014-07-29 11:39:00,70.6,60.3,29.65,NW,307,1.2,3.5,70,0.00,CLR,FEW,0.01,WeatherDisplay:10.37,2014-07-29 15:39:00,
2014-07-29 11:44:00,70.8,60.5,29.65,WNW,303,0.2,1.2,70,0.00,CLR,FEW,0.01,WeatherDisplay:10.37,2014-07-29 15:44:00,
2014-07-29 11:49:00,70.9,61.8,29.65,WNW,303,1.2,3.5,73,0.00,CLR,FEW,0.01,WeatherDisplay:10.37,2014-07-29 15:49:00,
2014-07-29 11:54:00,70.7,61.2,29.65,NW,304,0.0,1.2,72,0.00,CLR,FEW,0.01,WeatherDisplay:10.37,2014-07-29 15:54:00,
2014-07-29 11:59:00,70.6,60.7,29.65,NW,307,0.0,1.2,71,0.00,CLR,FEW,0.01,WeatherDisplay:10.37,2014-07-29 15:59:00,
2014-07-29 12:04:00,70.8,60.9,29.65,NW,307,2.3,3.5,71,0.00,CLR,FEW,0.01,WeatherDisplay:10.37,2014-07-29 16:04:00,
2014-07-29 12:09:00,71.1,60.0,29.65,NW,308,0.7,5.0,68,0.00,CLR,FEW,0.01,WeatherDisplay:10.37,2014-07-29 16:09:00,
2014-07-29 12:14:00,71.1,60.0,29.66,NW,307,1.1,3.5,68,0.00,CLR,FEW,0.01,WeatherDisplay:10.37,2014-07-29 16:14:00,
2014-07-29 12:19:00,70.9,59.4,29.66,NW,307,2.7,5.0,67,0.00,CLR,FEW,0.01,WeatherDisplay:10.37,2014-07-29 16:19:00,
2014-07-29 12:24:00,70.7,60.0,29.66,NW,307,3.6,5.0,69,0.00,CLR,FEW,0.01,WeatherDisplay:10.37,2014-07-29 16:24:00,
2014-07-29 12:29:00,70.5,59.4,29.67,NW,307,0.5,2.3,68,0.00,CLR,FEW,0.01,WeatherDisplay:10.37,2014-07-29 16:29:00,
2014-07-29 12:34:00,70.5,59.0,29.67,NW,307,4.8,5.8,67,0.00,CLR,FEW,0.01,WeatherDisplay:10.37,2014-07-29 16:34:00,
2014-07-29 12:39:00,70.6,59.1,29.67,NW,308,0.4,3.0,67,0.00,CLR,FEW,0.01,WeatherDisplay:10.37,2014-07-29 16:39:00,
2014-07-29 12:44:00,70.9,58.5,29.67,NW,307,3.7,5.8,65,0.00,CLR,FEW,0.01,WeatherDisplay:10.37,2014-07-29 16:44:00,
2014-07-29 12:49:00,71.1,58.3,29.67,NW,308,1.2,3.0,64,0.00,CLR,FEW,0.01,WeatherDisplay:10.37,2014-07-29 16:49:00,
2014-07-29 12:54:00,71.3,58.5,29.67,NW,308,0.4,4.0,64,0.00,CLR,FEW,0.01,WeatherDisplay:10.37,2014-07-29 16:54:00,
2014-07-29 12:59:00,71.3,59.8,29.67,NW,307,4.3,5.0,67,0.00,CLR,FEW,0.01,WeatherDisplay:10.37,2014-07-29 16:59:00,
2014-07-29 13:04:00,71.3,58.9,29.67,NW,307,2.1,3.5,65,0.00,CLR,FEW,0.01,WeatherDisplay:10.37,2014-07-29 17:04:00,
2014-07-29 13:09:00,71.3,58.5,29.67,NW,307,0.0,0.0,64,0.00,CLR,FEW,0.01,WeatherDisplay:10.37,2014-07-29 17:09:00,
2014-07-29 13:14:00,71.5,59.5,29.67,NW,308,4.3,4.6,66,0.00,CLR,FEW,0.01,WeatherDisplay:10.37,2014-07-29 17:14:00,
2014-07-29 13:19:00,71.5,58.7,29.67,WNW,303,3.2,5.0,64,0.00,CLR,FEW,0.01,WeatherDisplay:10.37,2014-07-29 17:19:00,
2014-07-29 13:24:00,71.3,58.5,29.67,NW,304,1.5,2.3,64,0.00,CLR,FEW,0.01,WeatherDisplay:10.37,2014-07-29 17:24:00,
2014-07-29 13:29:00,71.3,58.9,29.68,WNW,303,0.1,1.2,65,0.00,CLR,FEW,0.01,WeatherDisplay:10.37,2014-07-29 17:29:00,
2014-07-29 13:34:00,71.3,58.9,29.68,WNW,303,0.0,0.0,65,0.00,CLR,FEW,0.01,WeatherDisplay:10.37,2014-07-29 17:34:00,
2014-07-29 13:39:00,71.4,61.9,29.68,NW,304,0.0,0.0,72,0.00,CLR,FEW,0.01,WeatherDisplay:10.37,2014-07-29 17:39:00,
2014-07-29 13:44:00,71.6,58.8,29.68,WNW,303,0.7,1.2,64,0.00,CLR,FEW,0.01,WeatherDisplay:10.37,2014-07-29 17:44:00,
2014-07-29 13:49:00,72.0,58.7,29.68,NW,304,0.3,1.2,63,0.00,CLR,FEW,0.01,WeatherDisplay:10.37,2014-07-29 17:49:00,
2014-07-29 13:54:00,72.3,58.1,29.68,NW,307,2.8,4.6,61,0.00,CLR,FEW,0.01,WeatherDisplay:10.37,2014-07-29 17:54:00,
2014-07-29 13:59:00,72.3,58.5,29.68,NW,307,1.5,4.0,62,0.00,CLR,FEW,0.01,WeatherDisplay:10.37,2014-07-29 17:59:00,
2014-07-29 14:04:00,72.4,58.2,29.68,NW,304,1.3,3.5,61,0.00,CLR,FEW,0.01,WeatherDisplay:10.37,2014-07-29 18:04:00,
2014-07-29 14:09:00,72.5,59.2,29.68,NW,307,3.5,5.0,63,0.00,CLR,FEW,0.01,WeatherDisplay:10.37,2014-07-29 18:09:00,
2014-07-29 14:14:00,72.5,57.8,29.69,NW,307,0.9,3.5,60,0.00,CLR,FEW,0.01,WeatherDisplay:10.37,2014-07-29 18:14:00,
2014-07-29 14:19:00,72.4,57.3,29.69,NW,307,0.0,1.2,59,0.00,CLR,FEW,0.01,WeatherDisplay:10.37,2014-07-29 18:19:00,
2014-07-29 14:24:00,72.5,58.3,29.69,NW,307,0.3,2.0,61,0.00,CLR,FEW,0.01,WeatherDisplay:10.37,2014-07-29 18:24:00,